sensor_id;sensor_type;location;lat;lon;timestamp;P1;durP1;ratioP1;P2;durP2;ratioP2
24961;SDS011;12992;50.884;13.668;2023-02-28T00:01:25;5.20;;;3.42;;
24961;SDS011;12992;50.884;13.668;2023-02-28T00:03:50;5.47;;;3.15;;
24961;SDS011;12992;50.884;13.668;2023-02-28T00:06:15;6.38;;;3.25;;
24961;SDS011;12992;50.884;13.668;2023-02-28T00:08:41;6.63;;;3.45;;
24961;SDS011;12992;50.884;13.668;2023-02-28T00:11:08;5.30;;;3.38;;
24961;SDS011;12992;50.884;13.668;2023-02-28T00:13:36;5.22;;;3.05;;
24961;SDS011;12992;50.884;13.668;2023-02-28T00:16:05;5.10;;;3.20;;
24961;SDS011;12992;50.884;13.668;2023-02-28T00:18:31;4.72;;;2.72;;
24961;SDS011;12992;50.884;13.668;2023-02-28T00:20:57;4.22;;;2.75;;
24961;SDS011;12992;50.884;13.668;2023-02-28T00:23:23;5.47;;;2.92;;
24961;SDS011;12992;50.884;13.668;2023-02-28T00:25:48;5.80;;;3.08;;
24961;SDS011;12992;50.884;13.668;2023-02-28T00:28:13;5.40;;;2.95;;
24961;SDS011;12992;50.884;13.668;2023-02-28T00:30:39;5.68;;;2.75;;
24961;SDS011;12992;50.884;13.668;2023-02-28T00:33:04;3.58;;;3.00;;
24961;SDS011;12992;50.884;13.668;2023-02-28T00:35:30;5.63;;;2.50;;
24961;SDS011;12992;50.884;13.668;2023-02-28T00:37:55;4.78;;;2.83;;
24961;SDS011;12992;50.884;13.668;2023-02-28T00:40:20;4.70;;;2.78;;
24961;SDS011;12992;50.884;13.668;2023-02-28T00:42:46;4.22;;;2.70;;
24961;SDS011;12992;50.884;13.668;2023-02-28T00:45:11;5.30;;;3.00;;
24961;SDS011;12992;50.884;13.668;2023-02-28T00:47:37;7.32;;;3.10;;
24961;SDS011;12992;50.884;13.668;2023-02-28T00:50:03;5.82;;;3.00;;
24961;SDS011;12992;50.884;13.668;2023-02-28T00:52:28;5.03;;;3.10;;
24961;SDS011;12992;50.884;13.668;2023-02-28T00:54:54;4.15;;;3.00;;
24961;SDS011;12992;50.884;13.668;2023-02-28T00:57:19;4.70;;;3.17;;
24961;SDS011;12992;50.884;13.668;2023-02-28T00:59:44;6.03;;;2.88;;
24961;SDS011;12992;50.884;13.668;2023-02-28T01:02:10;5.13;;;2.67;;
24961;SDS011;12992;50.884;13.668;2023-02-28T01:04:35;5.30;;;2.88;;
24961;SDS011;12992;50.884;13.668;2023-02-28T01:07:01;5.28;;;3.10;;
24961;SDS011;12992;50.884;13.668;2023-02-28T01:09:27;4.22;;;2.90;;
24961;SDS011;12992;50.884;13.668;2023-02-28T01:11:52;4.68;;;2.75;;
24961;SDS011;12992;50.884;13.668;2023-02-28T01:14:18;4.05;;;2.78;;
24961;SDS011;12992;50.884;13.668;2023-02-28T01:16:44;5.22;;;2.58;;
24961;SDS011;12992;50.884;13.668;2023-02-28T01:19:10;5.38;;;2.65;;
24961;SDS011;12992;50.884;13.668;2023-02-28T01:21:37;3.50;;;2.53;;
24961;SDS011;12992;50.884;13.668;2023-02-28T01:24:03;3.92;;;2.33;;
24961;SDS011;12992;50.884;13.668;2023-02-28T01:26:30;4.75;;;2.92;;
24961;SDS011;12992;50.884;13.668;2023-02-28T01:28:55;3.50;;;2.33;;
24961;SDS011;12992;50.884;13.668;2023-02-28T01:31:21;4.88;;;2.63;;
24961;SDS011;12992;50.884;13.668;2023-02-28T01:33:48;4.93;;;2.83;;
24961;SDS011;12992;50.884;13.668;2023-02-28T01:36:15;3.75;;;2.50;;
24961;SDS011;12992;50.884;13.668;2023-02-28T01:38:42;4.13;;;2.72;;
24961;SDS011;12992;50.884;13.668;2023-02-28T01:41:09;4.15;;;2.50;;
24961;SDS011;12992;50.884;13.668;2023-02-28T01:46:08;4.30;;;2.90;;
24961;SDS011;12992;50.884;13.668;2023-02-28T01:48:34;5.05;;;3.08;;
24961;SDS011;12992;50.884;13.668;2023-02-28T01:51:05;7.05;;;3.00;;
24961;SDS011;12992;50.884;13.668;2023-02-28T01:53:39;3.97;;;3.05;;
24961;SDS011;12992;50.884;13.668;2023-02-28T01:56:09;4.30;;;2.85;;
24961;SDS011;12992;50.884;13.668;2023-02-28T01:58:39;4.47;;;2.35;;
24961;SDS011;12992;50.884;13.668;2023-02-28T02:01:05;4.82;;;2.70;;
24961;SDS011;12992;50.884;13.668;2023-02-28T02:03:31;5.40;;;3.10;;
24961;SDS011;12992;50.884;13.668;2023-02-28T02:05:57;6.07;;;2.80;;
24961;SDS011;12992;50.884;13.668;2023-02-28T02:08:23;3.70;;;2.58;;
24961;SDS011;12992;50.884;13.668;2023-02-28T02:10:51;4.53;;;2.90;;
24961;SDS011;12992;50.884;13.668;2023-02-28T02:13:26;5.15;;;2.67;;
24961;SDS011;12992;50.884;13.668;2023-02-28T02:16:04;5.80;;;3.03;;
24961;SDS011;12992;50.884;13.668;2023-02-28T02:24:18;5.15;;;2.95;;
24961;SDS011;12992;50.884;13.668;2023-02-28T02:27:15;5.00;;;2.78;;
24961;SDS011;12992;50.884;13.668;2023-02-28T02:44:01;3.03;;;2.40;;
24961;SDS011;12992;50.884;13.668;2023-02-28T02:46:33;4.45;;;2.65;;
24961;SDS011;12992;50.884;13.668;2023-02-28T02:49:00;6.38;;;3.00;;
24961;SDS011;12992;50.884;13.668;2023-02-28T02:51:30;7.13;;;2.53;;
24961;SDS011;12992;50.884;13.668;2023-02-28T02:54:08;4.53;;;2.55;;
24961;SDS011;12992;50.884;13.668;2023-02-28T02:56:41;5.85;;;2.78;;
24961;SDS011;12992;50.884;13.668;2023-02-28T02:59:11;4.55;;;2.53;;
24961;SDS011;12992;50.884;13.668;2023-02-28T03:01:40;3.58;;;2.45;;
24961;SDS011;12992;50.884;13.668;2023-02-28T03:04:09;4.43;;;2.60;;
24961;SDS011;12992;50.884;13.668;2023-02-28T03:06:38;4.95;;;3.13;;
24961;SDS011;12992;50.884;13.668;2023-02-28T03:09:03;5.15;;;2.40;;
24961;SDS011;12992;50.884;13.668;2023-02-28T03:11:29;7.85;;;2.88;;
24961;SDS011;12992;50.884;13.668;2023-02-28T03:14:03;4.78;;;2.85;;
24961;SDS011;12992;50.884;13.668;2023-02-28T03:19:25;4.70;;;2.88;;
24961;SDS011;12992;50.884;13.668;2023-02-28T03:33:17;6.38;;;2.67;;
24961;SDS011;12992;50.884;13.668;2023-02-28T03:35:50;5.05;;;3.28;;
24961;SDS011;12992;50.884;13.668;2023-02-28T03:38:22;5.00;;;3.08;;
24961;SDS011;12992;50.884;13.668;2023-02-28T03:41:16;5.68;;;3.00;;
24961;SDS011;12992;50.884;13.668;2023-02-28T03:43:55;4.88;;;2.92;;
24961;SDS011;12992;50.884;13.668;2023-02-28T03:46:25;5.57;;;2.83;;
24961;SDS011;12992;50.884;13.668;2023-02-28T03:51:21;8.50;;;3.60;;
24961;SDS011;12992;50.884;13.668;2023-02-28T03:53:50;6.43;;;3.25;;
24961;SDS011;12992;50.884;13.668;2023-02-28T03:56:29;6.72;;;3.50;;
24961;SDS011;12992;50.884;13.668;2023-02-28T03:59:02;4.10;;;2.90;;
24961;SDS011;12992;50.884;13.668;2023-02-28T04:01:35;4.63;;;2.97;;
24961;SDS011;12992;50.884;13.668;2023-02-28T04:04:06;7.05;;;3.30;;
24961;SDS011;12992;50.884;13.668;2023-02-28T04:06:32;5.47;;;3.30;;
24961;SDS011;12992;50.884;13.668;2023-02-28T04:08:59;7.35;;;3.63;;
24961;SDS011;12992;50.884;13.668;2023-02-28T04:11:30;5.90;;;3.80;;
24961;SDS011;12992;50.884;13.668;2023-02-28T04:14:00;5.88;;;3.58;;
24961;SDS011;12992;50.884;13.668;2023-02-28T04:16:26;6.05;;;4.20;;
24961;SDS011;12992;50.884;13.668;2023-02-28T04:18:51;7.35;;;3.35;;
24961;SDS011;12992;50.884;13.668;2023-02-28T04:21:16;6.13;;;3.28;;
24961;SDS011;12992;50.884;13.668;2023-02-28T04:23:45;7.70;;;3.53;;
24961;SDS011;12992;50.884;13.668;2023-02-28T04:26:11;5.60;;;3.42;;
24961;SDS011;12992;50.884;13.668;2023-02-28T04:28:36;5.60;;;3.45;;
24961;SDS011;12992;50.884;13.668;2023-02-28T04:31:03;7.65;;;3.53;;
24961;SDS011;12992;50.884;13.668;2023-02-28T04:33:30;6.63;;;3.13;;
24961;SDS011;12992;50.884;13.668;2023-02-28T04:36:00;6.40;;;3.58;;
24961;SDS011;12992;50.884;13.668;2023-02-28T04:38:27;8.23;;;4.30;;
24961;SDS011;12992;50.884;13.668;2023-02-28T04:40:53;8.75;;;4.30;;
24961;SDS011;12992;50.884;13.668;2023-02-28T04:43:19;9.18;;;4.45;;
24961;SDS011;12992;50.884;13.668;2023-02-28T04:45:44;10.13;;;4.72;;
24961;SDS011;12992;50.884;13.668;2023-02-28T04:48:09;8.68;;;4.57;;
24961;SDS011;12992;50.884;13.668;2023-02-28T04:50:34;7.72;;;4.35;;
24961;SDS011;12992;50.884;13.668;2023-02-28T04:53:00;7.15;;;3.80;;
24961;SDS011;12992;50.884;13.668;2023-02-28T04:55:25;8.20;;;4.68;;
24961;SDS011;12992;50.884;13.668;2023-02-28T04:57:50;10.15;;;4.72;;
24961;SDS011;12992;50.884;13.668;2023-02-28T05:00:16;8.10;;;4.45;;
24961;SDS011;12992;50.884;13.668;2023-02-28T05:02:41;10.88;;;4.90;;
24961;SDS011;12992;50.884;13.668;2023-02-28T05:05:07;7.63;;;4.82;;
24961;SDS011;12992;50.884;13.668;2023-02-28T05:07:33;9.07;;;4.72;;
24961;SDS011;12992;50.884;13.668;2023-02-28T05:09:58;13.18;;;5.13;;
24961;SDS011;12992;50.884;13.668;2023-02-28T05:12:23;8.55;;;4.45;;
24961;SDS011;12992;50.884;13.668;2023-02-28T05:14:49;8.77;;;4.30;;
24961;SDS011;12992;50.884;13.668;2023-02-28T05:17:14;9.23;;;4.72;;
24961;SDS011;12992;50.884;13.668;2023-02-28T05:19:39;10.73;;;4.82;;
24961;SDS011;12992;50.884;13.668;2023-02-28T05:22:09;11.15;;;4.65;;
24961;SDS011;12992;50.884;13.668;2023-02-28T05:24:39;8.80;;;4.63;;
24961;SDS011;12992;50.884;13.668;2023-02-28T05:27:04;9.30;;;5.18;;
24961;SDS011;12992;50.884;13.668;2023-02-28T05:29:29;8.15;;;4.70;;
24961;SDS011;12992;50.884;13.668;2023-02-28T05:31:55;8.85;;;5.13;;
24961;SDS011;12992;50.884;13.668;2023-02-28T05:34:20;7.97;;;4.30;;
24961;SDS011;12992;50.884;13.668;2023-02-28T05:36:45;8.48;;;4.32;;
24961;SDS011;12992;50.884;13.668;2023-02-28T05:39:11;10.70;;;5.00;;
24961;SDS011;12992;50.884;13.668;2023-02-28T05:41:38;9.18;;;5.30;;
24961;SDS011;12992;50.884;13.668;2023-02-28T05:44:05;8.38;;;4.50;;
24961;SDS011;12992;50.884;13.668;2023-02-28T05:46:30;7.97;;;5.20;;
24961;SDS011;12992;50.884;13.668;2023-02-28T05:48:55;9.93;;;5.00;;
24961;SDS011;12992;50.884;13.668;2023-02-28T05:51:22;11.05;;;5.93;;
24961;SDS011;12992;50.884;13.668;2023-02-28T05:53:48;9.15;;;5.00;;
24961;SDS011;12992;50.884;13.668;2023-02-28T05:56:14;10.70;;;5.97;;
24961;SDS011;12992;50.884;13.668;2023-02-28T05:58:39;11.77;;;5.65;;
24961;SDS011;12992;50.884;13.668;2023-02-28T06:01:21;9.70;;;5.63;;
24961;SDS011;12992;50.884;13.668;2023-02-28T06:04:00;10.48;;;5.05;;
24961;SDS011;12992;50.884;13.668;2023-02-28T06:06:27;10.68;;;5.15;;
24961;SDS011;12992;50.884;13.668;2023-02-28T06:08:54;10.82;;;5.22;;
24961;SDS011;12992;50.884;13.668;2023-02-28T06:11:20;14.98;;;6.55;;
24961;SDS011;12992;50.884;13.668;2023-02-28T06:13:45;9.55;;;5.68;;
24961;SDS011;12992;50.884;13.668;2023-02-28T06:16:11;15.18;;;6.80;;
24961;SDS011;12992;50.884;13.668;2023-02-28T06:18:36;9.43;;;5.55;;
24961;SDS011;12992;50.884;13.668;2023-02-28T06:21:02;12.05;;;6.70;;
24961;SDS011;12992;50.884;13.668;2023-02-28T06:23:27;12.30;;;6.22;;
24961;SDS011;12992;50.884;13.668;2023-02-28T06:25:53;13.60;;;6.63;;
24961;SDS011;12992;50.884;13.668;2023-02-28T06:28:18;10.65;;;5.65;;
24961;SDS011;12992;50.884;13.668;2023-02-28T06:30:44;18.05;;;8.40;;
24961;SDS011;12992;50.884;13.668;2023-02-28T06:33:09;23.42;;;11.02;;
24961;SDS011;12992;50.884;13.668;2023-02-28T06:35:34;14.18;;;6.53;;
24961;SDS011;12992;50.884;13.668;2023-02-28T06:38:00;12.90;;;6.13;;
24961;SDS011;12992;50.884;13.668;2023-02-28T06:40:25;12.63;;;6.82;;
24961;SDS011;12992;50.884;13.668;2023-02-28T06:42:51;14.18;;;6.65;;
24961;SDS011;12992;50.884;13.668;2023-02-28T06:45:16;13.55;;;7.53;;
24961;SDS011;12992;50.884;13.668;2023-02-28T06:47:42;10.23;;;5.90;;
24961;SDS011;12992;50.884;13.668;2023-02-28T06:50:09;11.35;;;5.78;;
24961;SDS011;12992;50.884;13.668;2023-02-28T06:52:36;10.60;;;5.93;;
24961;SDS011;12992;50.884;13.668;2023-02-28T06:55:02;13.15;;;6.43;;
24961;SDS011;12992;50.884;13.668;2023-02-28T06:57:29;9.80;;;5.57;;
24961;SDS011;12992;50.884;13.668;2023-02-28T06:59:58;9.38;;;5.95;;
24961;SDS011;12992;50.884;13.668;2023-02-28T07:02:25;11.30;;;5.68;;
24961;SDS011;12992;50.884;13.668;2023-02-28T07:04:51;11.52;;;5.82;;
24961;SDS011;12992;50.884;13.668;2023-02-28T07:07:16;13.63;;;5.75;;
24961;SDS011;12992;50.884;13.668;2023-02-28T07:09:41;12.95;;;6.22;;
24961;SDS011;12992;50.884;13.668;2023-02-28T07:12:07;13.77;;;6.78;;
24961;SDS011;12992;50.884;13.668;2023-02-28T07:14:32;13.48;;;6.30;;
24961;SDS011;12992;50.884;13.668;2023-02-28T07:16:57;13.15;;;6.50;;
24961;SDS011;12992;50.884;13.668;2023-02-28T07:19:23;13.30;;;6.90;;
24961;SDS011;12992;50.884;13.668;2023-02-28T07:21:48;11.30;;;6.43;;
24961;SDS011;12992;50.884;13.668;2023-02-28T07:24:14;12.30;;;6.57;;
24961;SDS011;12992;50.884;13.668;2023-02-28T07:26:41;13.25;;;6.72;;
24961;SDS011;12992;50.884;13.668;2023-02-28T07:29:06;12.55;;;6.82;;
24961;SDS011;12992;50.884;13.668;2023-02-28T07:31:32;11.45;;;6.75;;
24961;SDS011;12992;50.884;13.668;2023-02-28T07:33:57;12.80;;;7.07;;
24961;SDS011;12992;50.884;13.668;2023-02-28T07:36:22;18.92;;;8.80;;
24961;SDS011;12992;50.884;13.668;2023-02-28T07:38:48;18.75;;;9.18;;
24961;SDS011;12992;50.884;13.668;2023-02-28T07:41:19;17.70;;;9.35;;
24961;SDS011;12992;50.884;13.668;2023-02-28T07:43:46;18.83;;;10.97;;
24961;SDS011;12992;50.884;13.668;2023-02-28T07:46:12;17.10;;;9.63;;
24961;SDS011;12992;50.884;13.668;2023-02-28T07:48:42;21.55;;;11.13;;
24961;SDS011;12992;50.884;13.668;2023-02-28T07:51:09;21.02;;;10.40;;
24961;SDS011;12992;50.884;13.668;2023-02-28T07:53:35;19.15;;;9.90;;
24961;SDS011;12992;50.884;13.668;2023-02-28T07:56:01;17.65;;;9.75;;
24961;SDS011;12992;50.884;13.668;2023-02-28T07:58:27;18.02;;;10.40;;
24961;SDS011;12992;50.884;13.668;2023-02-28T08:00:53;17.90;;;9.50;;
24961;SDS011;12992;50.884;13.668;2023-02-28T08:03:20;15.07;;;8.13;;
24961;SDS011;12992;50.884;13.668;2023-02-28T08:05:46;13.38;;;8.23;;
24961;SDS011;12992;50.884;13.668;2023-02-28T08:08:12;12.82;;;7.55;;
24961;SDS011;12992;50.884;13.668;2023-02-28T08:10:38;12.82;;;7.82;;
24961;SDS011;12992;50.884;13.668;2023-02-28T08:13:04;16.67;;;8.32;;
24961;SDS011;12992;50.884;13.668;2023-02-28T08:15:30;14.45;;;8.27;;
24961;SDS011;12992;50.884;13.668;2023-02-28T08:17:55;16.83;;;8.05;;
24961;SDS011;12992;50.884;13.668;2023-02-28T08:20:23;14.05;;;7.70;;
24961;SDS011;12992;50.884;13.668;2023-02-28T08:22:49;16.45;;;8.98;;
24961;SDS011;12992;50.884;13.668;2023-02-28T08:25:15;15.18;;;8.98;;
24961;SDS011;12992;50.884;13.668;2023-02-28T08:27:40;17.25;;;9.15;;
24961;SDS011;12992;50.884;13.668;2023-02-28T08:30:06;21.13;;;9.32;;
24961;SDS011;12992;50.884;13.668;2023-02-28T08:32:32;14.82;;;8.95;;
24961;SDS011;12992;50.884;13.668;2023-02-28T08:34:58;18.10;;;9.15;;
24961;SDS011;12992;50.884;13.668;2023-02-28T08:37:24;18.58;;;10.27;;
24961;SDS011;12992;50.884;13.668;2023-02-28T08:39:49;15.00;;;9.00;;
24961;SDS011;12992;50.884;13.668;2023-02-28T08:42:15;17.95;;;9.48;;
24961;SDS011;12992;50.884;13.668;2023-02-28T08:44:40;18.70;;;10.13;;
24961;SDS011;12992;50.884;13.668;2023-02-28T08:47:05;18.17;;;9.75;;
24961;SDS011;12992;50.884;13.668;2023-02-28T08:49:31;21.00;;;9.70;;
24961;SDS011;12992;50.884;13.668;2023-02-28T08:51:57;16.35;;;9.13;;
24961;SDS011;12992;50.884;13.668;2023-02-28T08:54:22;15.05;;;9.48;;
24961;SDS011;12992;50.884;13.668;2023-02-28T08:56:48;18.65;;;9.00;;
24961;SDS011;12992;50.884;13.668;2023-02-28T08:59:14;15.95;;;8.27;;
24961;SDS011;12992;50.884;13.668;2023-02-28T09:01:40;15.40;;;8.43;;
24961;SDS011;12992;50.884;13.668;2023-02-28T09:04:06;16.70;;;8.15;;
24961;SDS011;12992;50.884;13.668;2023-02-28T09:06:33;14.30;;;7.97;;
24961;SDS011;12992;50.884;13.668;2023-02-28T09:08:59;14.68;;;8.57;;
24961;SDS011;12992;50.884;13.668;2023-02-28T09:11:26;13.68;;;8.25;;
24961;SDS011;12992;50.884;13.668;2023-02-28T09:13:51;14.48;;;7.88;;
24961;SDS011;12992;50.884;13.668;2023-02-28T09:16:16;12.60;;;7.65;;
24961;SDS011;12992;50.884;13.668;2023-02-28T09:18:42;13.38;;;8.65;;
24961;SDS011;12992;50.884;13.668;2023-02-28T09:21:09;16.75;;;8.23;;
24961;SDS011;12992;50.884;13.668;2023-02-28T09:23:39;13.05;;;7.88;;
24961;SDS011;12992;50.884;13.668;2023-02-28T09:26:05;13.27;;;8.07;;
24961;SDS011;12992;50.884;13.668;2023-02-28T09:28:31;11.90;;;7.60;;
24961;SDS011;12992;50.884;13.668;2023-02-28T09:30:57;11.90;;;8.30;;
24961;SDS011;12992;50.884;13.668;2023-02-28T09:33:23;11.43;;;7.72;;
24961;SDS011;12992;50.884;13.668;2023-02-28T09:35:49;12.90;;;7.75;;
24961;SDS011;12992;50.884;13.668;2023-02-28T09:38:15;12.13;;;7.75;;
24961;SDS011;12992;50.884;13.668;2023-02-28T09:43:26;15.98;;;8.95;;
24961;SDS011;12992;50.884;13.668;2023-02-28T09:48:54;12.80;;;7.78;;
24961;SDS011;12992;50.884;13.668;2023-02-28T09:53:46;13.77;;;6.88;;
24961;SDS011;12992;50.884;13.668;2023-02-28T09:56:14;12.65;;;6.75;;
24961;SDS011;12992;50.884;13.668;2023-02-28T09:58:48;10.07;;;5.88;;
24961;SDS011;12992;50.884;13.668;2023-02-28T10:01:21;16.02;;;6.55;;
24961;SDS011;12992;50.884;13.668;2023-02-28T10:06:46;11.77;;;6.18;;
24961;SDS011;12992;50.884;13.668;2023-02-28T10:09:18;8.98;;;6.05;;
24961;SDS011;12992;50.884;13.668;2023-02-28T10:11:50;10.23;;;5.93;;
24961;SDS011;12992;50.884;13.668;2023-02-28T10:14:18;10.15;;;6.20;;
24961;SDS011;12992;50.884;13.668;2023-02-28T10:16:54;9.52;;;6.00;;
24961;SDS011;12992;50.884;13.668;2023-02-28T10:19:28;10.60;;;5.63;;
24961;SDS011;12992;50.884;13.668;2023-02-28T10:21:59;8.13;;;5.13;;
24961;SDS011;12992;50.884;13.668;2023-02-28T10:26:59;8.13;;;5.20;;
24961;SDS011;12992;50.884;13.668;2023-02-28T10:29:31;7.60;;;5.68;;
24961;SDS011;12992;50.884;13.668;2023-02-28T10:31:58;10.25;;;5.97;;
24961;SDS011;12992;50.884;13.668;2023-02-28T10:34:27;10.70;;;6.35;;
24961;SDS011;12992;50.884;13.668;2023-02-28T10:36:52;10.43;;;6.55;;
24961;SDS011;12992;50.884;13.668;2023-02-28T10:39:35;11.30;;;6.18;;
24961;SDS011;12992;50.884;13.668;2023-02-28T10:42:04;10.60;;;6.10;;
24961;SDS011;12992;50.884;13.668;2023-02-28T10:44:43;10.75;;;6.40;;
24961;SDS011;12992;50.884;13.668;2023-02-28T10:47:13;8.35;;;6.13;;
24961;SDS011;12992;50.884;13.668;2023-02-28T10:49:45;9.77;;;5.93;;
24961;SDS011;12992;50.884;13.668;2023-02-28T10:52:12;9.57;;;6.28;;
24961;SDS011;12992;50.884;13.668;2023-02-28T10:54:37;9.70;;;5.88;;
24961;SDS011;12992;50.884;13.668;2023-02-28T10:57:16;8.13;;;5.10;;
24961;SDS011;12992;50.884;13.668;2023-02-28T10:59:44;11.75;;;5.88;;
24961;SDS011;12992;50.884;13.668;2023-02-28T11:08:10;9.52;;;5.65;;
24961;SDS011;12992;50.884;13.668;2023-02-28T11:10:39;10.65;;;6.22;;
24961;SDS011;12992;50.884;13.668;2023-02-28T11:13:05;12.40;;;5.60;;
24961;SDS011;12992;50.884;13.668;2023-02-28T11:15:31;9.57;;;6.25;;
24961;SDS011;12992;50.884;13.668;2023-02-28T11:20:42;9.32;;;5.82;;
24961;SDS011;12992;50.884;13.668;2023-02-28T11:23:14;9.48;;;5.60;;
24961;SDS011;12992;50.884;13.668;2023-02-28T11:25:45;9.30;;;5.55;;
24961;SDS011;12992;50.884;13.668;2023-02-28T11:28:24;8.20;;;5.28;;
24961;SDS011;12992;50.884;13.668;2023-02-28T11:31:14;8.15;;;5.60;;
24961;SDS011;12992;50.884;13.668;2023-02-28T11:33:46;7.72;;;5.78;;
24961;SDS011;12992;50.884;13.668;2023-02-28T11:36:33;11.00;;;5.90;;
24961;SDS011;12992;50.884;13.668;2023-02-28T11:38:59;7.95;;;5.10;;
24961;SDS011;12992;50.884;13.668;2023-02-28T11:44:19;8.50;;;5.43;;
24961;SDS011;12992;50.884;13.668;2023-02-28T11:47:13;10.75;;;6.22;;
24961;SDS011;12992;50.884;13.668;2023-02-28T11:57:56;9.40;;;5.75;;
24961;SDS011;12992;50.884;13.668;2023-02-28T12:05:48;9.10;;;6.43;;
24961;SDS011;12992;50.884;13.668;2023-02-28T12:13:49;9.32;;;5.88;;
24961;SDS011;12992;50.884;13.668;2023-02-28T12:16:46;9.95;;;6.38;;
24961;SDS011;12992;50.884;13.668;2023-02-28T12:19:48;11.88;;;5.78;;
24961;SDS011;12992;50.884;13.668;2023-02-28T12:28:03;10.50;;;5.82;;
24961;SDS011;12992;50.884;13.668;2023-02-28T12:30:33;8.15;;;6.05;;
24961;SDS011;12992;50.884;13.668;2023-02-28T12:33:03;10.57;;;5.90;;
24961;SDS011;12992;50.884;13.668;2023-02-28T12:38:14;10.63;;;6.50;;
24961;SDS011;12992;50.884;13.668;2023-02-28T12:40:57;9.35;;;5.90;;
24961;SDS011;12992;50.884;13.668;2023-02-28T12:46:07;14.25;;;6.75;;
24961;SDS011;12992;50.884;13.668;2023-02-28T12:48:39;12.20;;;5.63;;
24961;SDS011;12992;50.884;13.668;2023-02-28T12:51:09;9.48;;;5.43;;
24961;SDS011;12992;50.884;13.668;2023-02-28T12:56:58;10.27;;;5.28;;
24961;SDS011;12992;50.884;13.668;2023-02-28T13:02:01;9.13;;;5.43;;
24961;SDS011;12992;50.884;13.668;2023-02-28T13:08:03;11.00;;;5.43;;
24961;SDS011;12992;50.884;13.668;2023-02-28T13:13:18;9.32;;;5.03;;
24961;SDS011;12992;50.884;13.668;2023-02-28T13:15:56;9.55;;;5.15;;
24961;SDS011;12992;50.884;13.668;2023-02-28T13:18:29;8.65;;;5.50;;
24961;SDS011;12992;50.884;13.668;2023-02-28T13:21:02;10.90;;;6.07;;
24961;SDS011;12992;50.884;13.668;2023-02-28T13:34:27;10.10;;;5.82;;
24961;SDS011;12992;50.884;13.668;2023-02-28T13:37:20;12.25;;;5.80;;
24961;SDS011;12992;50.884;13.668;2023-02-28T13:47:27;8.00;;;5.53;;
24961;SDS011;12992;50.884;13.668;2023-02-28T13:49:54;7.88;;;5.57;;
24961;SDS011;12992;50.884;13.668;2023-02-28T13:58:33;10.40;;;5.32;;
24961;SDS011;12992;50.884;13.668;2023-02-28T14:06:57;9.88;;;5.88;;
24961;SDS011;12992;50.884;13.668;2023-02-28T14:09:25;10.32;;;6.68;;
24961;SDS011;12992;50.884;13.668;2023-02-28T14:11:54;10.73;;;6.70;;
24961;SDS011;12992;50.884;13.668;2023-02-28T14:17:03;10.20;;;6.78;;
24961;SDS011;12992;50.884;13.668;2023-02-28T14:19:31;12.98;;;7.95;;
24961;SDS011;12992;50.884;13.668;2023-02-28T14:30:40;12.63;;;7.47;;
24961;SDS011;12992;50.884;13.668;2023-02-28T14:33:16;14.00;;;8.00;;
24961;SDS011;12992;50.884;13.668;2023-02-28T14:36:03;15.25;;;8.88;;
24961;SDS011;12992;50.884;13.668;2023-02-28T14:38:45;12.52;;;8.52;;
24961;SDS011;12992;50.884;13.668;2023-02-28T14:41:16;15.93;;;8.35;;
24961;SDS011;12992;50.884;13.668;2023-02-28T14:43:49;14.52;;;7.80;;
24961;SDS011;12992;50.884;13.668;2023-02-28T14:46:16;12.43;;;7.90;;
24961;SDS011;12992;50.884;13.668;2023-02-28T14:48:44;14.15;;;8.00;;
24961;SDS011;12992;50.884;13.668;2023-02-28T14:51:11;13.98;;;7.97;;
24961;SDS011;12992;50.884;13.668;2023-02-28T14:53:43;14.68;;;8.07;;
24961;SDS011;12992;50.884;13.668;2023-02-28T14:56:24;13.88;;;7.82;;
24961;SDS011;12992;50.884;13.668;2023-02-28T14:58:57;13.15;;;8.13;;
24961;SDS011;12992;50.884;13.668;2023-02-28T15:01:23;12.82;;;8.13;;
24961;SDS011;12992;50.884;13.668;2023-02-28T15:03:57;12.25;;;7.95;;
24961;SDS011;12992;50.884;13.668;2023-02-28T15:06:24;14.52;;;8.40;;
24961;SDS011;12992;50.884;13.668;2023-02-28T15:09:06;16.08;;;8.15;;
24961;SDS011;12992;50.884;13.668;2023-02-28T15:11:44;15.20;;;8.55;;
24961;SDS011;12992;50.884;13.668;2023-02-28T15:14:16;19.85;;;10.45;;
24961;SDS011;12992;50.884;13.668;2023-02-28T15:16:46;19.85;;;9.27;;
24961;SDS011;12992;50.884;13.668;2023-02-28T15:19:28;19.65;;;9.55;;
24961;SDS011;12992;50.884;13.668;2023-02-28T15:21:57;14.07;;;8.68;;
24961;SDS011;12992;50.884;13.668;2023-02-28T15:24:37;13.77;;;7.30;;
24961;SDS011;12992;50.884;13.668;2023-02-28T15:27:07;14.65;;;8.93;;
24961;SDS011;12992;50.884;13.668;2023-02-28T15:29:46;14.68;;;8.98;;
24961;SDS011;12992;50.884;13.668;2023-02-28T15:32:21;16.88;;;9.05;;
24961;SDS011;12992;50.884;13.668;2023-02-28T15:34:55;13.38;;;8.60;;
24961;SDS011;12992;50.884;13.668;2023-02-28T15:37:44;14.13;;;8.90;;
24961;SDS011;12992;50.884;13.668;2023-02-28T15:42:40;16.23;;;8.90;;
24961;SDS011;12992;50.884;13.668;2023-02-28T15:45:05;16.20;;;9.57;;
24961;SDS011;12992;50.884;13.668;2023-02-28T15:47:52;18.13;;;9.38;;
24961;SDS011;12992;50.884;13.668;2023-02-28T15:50:17;18.58;;;9.50;;
24961;SDS011;12992;50.884;13.668;2023-02-28T15:52:43;16.63;;;8.85;;
24961;SDS011;12992;50.884;13.668;2023-02-28T15:55:11;16.35;;;8.57;;
24961;SDS011;12992;50.884;13.668;2023-02-28T15:57:43;18.58;;;9.50;;
24961;SDS011;12992;50.884;13.668;2023-02-28T16:00:14;16.08;;;9.32;;
24961;SDS011;12992;50.884;13.668;2023-02-28T16:02:44;16.77;;;9.48;;
24961;SDS011;12992;50.884;13.668;2023-02-28T16:07:35;19.92;;;9.35;;
24961;SDS011;12992;50.884;13.668;2023-02-28T16:10:06;19.83;;;9.27;;
24961;SDS011;12992;50.884;13.668;2023-02-28T16:12:36;16.55;;;9.68;;
24961;SDS011;12992;50.884;13.668;2023-02-28T16:15:07;17.33;;;9.80;;
24961;SDS011;12992;50.884;13.668;2023-02-28T16:17:41;19.50;;;9.88;;
24961;SDS011;12992;50.884;13.668;2023-02-28T16:20:13;22.15;;;12.52;;
24961;SDS011;12992;50.884;13.668;2023-02-28T16:22:39;63.25;;;32.92;;
24961;SDS011;12992;50.884;13.668;2023-02-28T16:25:07;71.13;;;38.47;;
24961;SDS011;12992;50.884;13.668;2023-02-28T16:27:36;43.92;;;25.60;;
24961;SDS011;12992;50.884;13.668;2023-02-28T16:30:03;42.03;;;22.70;;
24961;SDS011;12992;50.884;13.668;2023-02-28T16:32:30;22.33;;;13.40;;
24961;SDS011;12992;50.884;13.668;2023-02-28T16:34:56;17.95;;;10.82;;
24961;SDS011;12992;50.884;13.668;2023-02-28T16:37:22;20.05;;;10.88;;
24961;SDS011;12992;50.884;13.668;2023-02-28T16:39:47;18.35;;;10.88;;
24961;SDS011;12992;50.884;13.668;2023-02-28T16:42:18;21.48;;;10.85;;
24961;SDS011;12992;50.884;13.668;2023-02-28T16:44:48;22.58;;;11.10;;
24961;SDS011;12992;50.884;13.668;2023-02-28T16:47:13;18.95;;;10.85;;
24961;SDS011;12992;50.884;13.668;2023-02-28T16:49:39;18.00;;;10.48;;
24961;SDS011;12992;50.884;13.668;2023-02-28T16:52:07;14.48;;;9.00;;
24961;SDS011;12992;50.884;13.668;2023-02-28T16:54:33;14.55;;;8.93;;
24961;SDS011;12992;50.884;13.668;2023-02-28T16:59:28;15.93;;;8.75;;
24961;SDS011;12992;50.884;13.668;2023-02-28T17:01:54;14.52;;;8.75;;
24961;SDS011;12992;50.884;13.668;2023-02-28T17:04:21;15.20;;;9.13;;
24961;SDS011;12992;50.884;13.668;2023-02-28T17:06:47;15.48;;;8.90;;
24961;SDS011;12992;50.884;13.668;2023-02-28T17:09:16;15.93;;;9.13;;
24961;SDS011;12992;50.884;13.668;2023-02-28T17:11:43;16.60;;;9.27;;